createdAt,value
2022-10-19T00:09:23.649Z,32.40
2022-10-19T00:19:27.124Z,31.83
2022-10-19T00:29:28.633Z,31.83
2022-10-19T00:39:30.143Z,31.00
2022-10-19T00:49:35.071Z,32.50
2022-10-19T00:59:38.406Z,30.77
2022-10-19T01:09:39.925Z,30.05
2022-10-19T01:20:15.892Z,31.67
2022-10-19T01:30:23.305Z,29.53
2022-10-19T01:40:54.141Z,28.83
2022-10-19T01:51:21.853Z,29.40
2022-10-19T02:01:25.564Z,29.13
2022-10-19T02:11:27.472Z,30.03
2022-10-19T02:21:29.025Z,28.67
2022-10-19T02:31:30.569Z,29.53
2022-10-19T02:41:39.421Z,30.03
2022-10-19T02:51:57.343Z,28.92
2022-10-19T03:01:58.829Z,29.87
2022-10-19T03:12:00.389Z,27.90
2022-10-19T03:22:02.138Z,27.63
2022-10-19T03:32:04.048Z,27.30
2022-10-19T03:42:05.525Z,26.85
2022-10-19T03:52:07.038Z,25.57
2022-10-19T04:02:08.529Z,26.87
2022-10-19T04:12:10.047Z,27.23
2022-10-19T04:22:11.534Z,26.70
2022-10-19T04:32:13.033Z,26.33
2022-10-19T04:42:14.513Z,24.60
2022-10-19T04:52:16.003Z,24.13
2022-10-19T05:02:17.671Z,24.27
2022-10-19T05:12:19.173Z,23.70
2022-10-19T05:22:20.672Z,24.33
2022-10-19T05:32:22.314Z,24.23
2022-10-19T05:42:23.890Z,25.07
2022-10-19T05:52:25.430Z,24.63
2022-10-19T06:02:26.962Z,23.50
2022-10-19T06:12:28.460Z,24.77
2022-10-19T06:22:30.033Z,23.13
2022-10-19T06:32:31.583Z,22.00
2022-10-19T06:42:33.142Z,22.33
2022-10-19T06:52:35.666Z,21.57
2022-10-19T07:02:37.459Z,19.92
2022-10-19T07:12:39.039Z,17.83
2022-10-19T07:22:40.552Z,17.87
2022-10-19T07:32:45.952Z,17.53
2022-10-19T07:42:48.373Z,17.00
2022-10-19T07:52:51.957Z,17.13
2022-10-19T08:02:57.793Z,18.07
2022-10-19T08:13:14.991Z,20.20
2022-10-19T08:23:16.497Z,20.83
2022-10-19T08:33:18.067Z,23.83
2022-10-19T08:43:40.955Z,26.92
2022-10-19T08:53:55.860Z,27.33
2022-10-19T09:04:18.342Z,29.20
2022-10-19T09:14:28.015Z,32.67
2022-10-19T09:24:42.042Z,31.87
2022-10-19T09:34:51.311Z,35.97
2022-10-19T09:44:54.366Z,33.33
2022-10-19T09:55:06.205Z,34.07
2022-10-19T10:05:14.951Z,33.93
2022-10-19T10:15:23.293Z,34.57
2022-10-19T10:25:31.677Z,37.15
2022-10-19T10:35:35.690Z,35.67
2022-10-19T10:45:44.017Z,34.50
2022-10-19T10:55:56.061Z,35.03
2022-10-19T11:06:00.167Z,34.80
2022-10-19T11:16:17.819Z,35.85
2022-10-19T11:26:37.747Z,35.63
2022-10-19T11:37:02.829Z,35.50
2022-10-19T11:47:16.483Z,30.83
2022-10-19T11:57:26.036Z,33.20
2022-10-19T12:07:36.675Z,31.95
2022-10-19T12:17:42.223Z,30.60
2022-10-19T12:27:44.143Z,30.27
2022-10-19T12:38:01.132Z,30.63
2022-10-19T12:48:08.470Z,30.13
2022-10-19T12:58:33.898Z,28.45
2022-10-19T13:08:47.372Z,28.93
2022-10-19T13:19:07.198Z,29.47
2022-10-19T13:29:25.346Z,29.20
2022-10-19T13:39:28.179Z,28.40
2022-10-19T13:49:41.811Z,24.80
2022-10-19T13:59:46.042Z,24.00
2022-10-19T14:09:55.325Z,24.90
2022-10-19T14:19:58.324Z,23.30
2022-10-19T14:29:59.943Z,26.33
2022-10-19T14:40:04.068Z,26.15
2022-10-19T14:50:06.306Z,26.50
2022-10-19T15:00:17.794Z,26.87
2022-10-19T15:10:46.766Z,27.10
2022-10-19T15:21:12.249Z,27.03
2022-10-19T15:31:18.738Z,26.52
2022-10-19T15:41:26.824Z,28.43
2022-10-19T15:51:28.280Z,26.20
2022-10-19T16:01:31.985Z,25.17
2022-10-19T16:11:33.550Z,25.57
2022-10-19T16:21:36.471Z,25.35
2022-10-19T16:31:38.434Z,24.33
2022-10-19T16:41:40.001Z,25.07
2022-10-19T16:51:42.000Z,23.10
2022-10-19T17:01:45.451Z,23.90
2022-10-19T17:11:47.010Z,25.67
2022-10-19T17:21:49.536Z,23.27
2022-10-19T17:31:51.472Z,24.67
2022-10-19T17:41:53.446Z,26.37
2022-10-19T17:51:55.014Z,25.07
2022-10-19T18:01:56.595Z,27.60
2022-10-19T18:11:58.115Z,27.80
2022-10-19T18:21:59.689Z,29.83
2022-10-19T18:32:01.276Z,29.03
2022-10-19T18:42:03.798Z,29.20
2022-10-19T18:52:05.319Z,30.63
2022-10-19T19:02:13.588Z,29.43
2022-10-19T19:12:24.155Z,31.37
2022-10-19T19:22:25.686Z,32.77
2022-10-19T19:32:27.181Z,33.97
2022-10-19T19:42:28.715Z,33.95
2022-10-19T19:52:30.232Z,33.80
2022-10-19T20:02:31.734Z,34.43
2022-10-19T20:12:33.239Z,33.70
2022-10-19T20:22:35.255Z,32.60
2022-10-19T20:32:37.407Z,33.70
2022-10-19T20:42:39.250Z,33.10
2022-10-19T20:52:40.768Z,34.00
2022-10-19T21:02:44.363Z,34.37
2022-10-19T21:12:45.904Z,32.53
2022-10-19T21:22:47.447Z,34.72
2022-10-19T21:32:48.997Z,34.67
2022-10-19T21:42:50.548Z,34.67
2022-10-19T21:52:52.048Z,35.13
2022-10-19T22:02:53.672Z,34.87
2022-10-19T22:12:55.873Z,34.05
2022-10-19T22:22:57.358Z,34.23
2022-10-19T22:32:58.849Z,33.23
2022-10-19T22:43:38.023Z,35.97
2022-10-19T22:53:39.575Z,32.50
2022-10-19T23:03:41.329Z,35.45
2022-10-19T23:13:43.186Z,33.73
2022-10-19T23:23:47.639Z,33.10
2022-10-19T23:33:49.133Z,32.67
2022-10-19T23:43:50.667Z,34.20
2022-10-19T23:53:52.861Z,33.47
